Time;durP1;ratioP1;P1;durP2;ratioP2;P2;SDS_P1;SDS_P2;PMS_P1;PMS_P2;Temp;Humidity;BMP_temperature;BMP_pressure;BME280_temperature;BME280_humidity;BME280_pressure;Samples;Min_cycle;Max_cycle;Signal;HPM_P1;HPM_P2
2023/10/17 00:01:44;;;;;;;1.40;0.60;;;9.40;68.60;;;;;;5120850;28;20036;-70
2023/10/17 00:04:32;;;;;;;1.65;0.60;;;9.40;68.90;;;;;;5121082;28;20028;-69
2023/10/17 00:07:02;;;;;;;1.10;0.60;;;9.40;69.00;;;;;;5120239;28;20057;-70
2023/10/17 00:09:36;;;;;;;1.50;0.60;;;9.50;69.40;;;;;;5121046;28;20061;-70
2023/10/17 00:12:25;;;;;;;2.05;1.00;;;9.60;69.60;;;;;;5120560;28;20515;-70
2023/10/17 00:17:19;;;;;;;2.05;0.65;;;9.60;69.30;;;;;;5120918;28;20019;-70
2023/10/17 00:19:45;;;;;;;2.20;0.60;;;9.60;69.50;;;;;;5120809;28;20027;-69
2023/10/17 00:22:18;;;;;;;2.15;0.70;;;9.60;69.70;;;;;;5102337;28;20015;-69
2023/10/17 00:24:46;;;;;;;1.65;0.60;;;9.60;69.60;;;;;;5120812;28;20539;-69
2023/10/17 00:27:13;;;;;;;1.45;0.68;;;9.70;69.90;;;;;;5119920;28;20032;-68
2023/10/17 00:29:38;;;;;;;1.80;0.47;;;9.70;69.90;;;;;;5120471;28;20024;-68
2023/10/17 00:32:04;;;;;;;1.50;0.68;;;9.80;69.80;;;;;;5120503;28;20023;-69
2023/10/17 00:34:30;;;;;;;1.63;0.60;;;9.80;70.00;;;;;;5120599;28;20024;-69
2023/10/17 00:37:14;;;;;;;0.65;0.40;;;9.80;70.20;;;;;;5120374;28;20502;-69
2023/10/17 00:39:39;;;;;;;1.08;0.60;;;9.80;70.00;;;;;;5120497;28;20027;-69
2023/10/17 00:44:39;;;;;;;1.42;0.70;;;9.80;70.20;;;;;;5120455;28;20114;-69
2023/10/17 00:47:11;;;;;;;1.95;0.50;;;9.80;70.10;;;;;;5120266;28;20065;-69
2023/10/17 00:49:42;;;;;;;1.75;0.65;;;9.80;71.00;;;;;;5120103;28;20016;-69
2023/10/17 00:52:34;;;;;;;2.30;0.40;;;9.80;70.50;;;;;;5101750;28;20032;-68
2023/10/17 00:55:01;;;;;;;1.73;0.70;;;9.80;70.50;;;;;;5119979;28;20054;-68
2023/10/17 00:57:26;;;;;;;2.20;0.80;;;9.80;70.70;;;;;;5101410;28;20050;-69
2023/10/17 00:59:57;;;;;;;1.98;0.70;;;9.90;70.80;;;;;;5119743;28;20044;-70
2023/10/17 01:02:29;;;;;;;1.50;0.52;;;9.90;70.70;;;;;;5120108;28;20027;-69
2023/10/17 01:04:58;;;;;;;1.38;0.47;;;9.90;70.70;;;;;;5119799;28;20019;-69
2023/10/17 01:07:31;;;;;;;2.85;0.80;;;9.90;70.80;;;;;;5101307;28;20031;-69
2023/10/17 01:10:13;;;;;;;2.70;0.50;;;9.80;70.80;;;;;;5128917;27;20044;-68
2023/10/17 01:15:28;;;;;;;0.93;0.55;;;9.90;70.90;;;;;;5119833;28;20041;-69
2023/10/17 01:18:06;;;;;;;1.33;0.65;;;9.90;71.10;;;;;;5119625;28;20077;-70
2023/10/17 01:20:34;;;;;;;3.40;0.45;;;9.90;71.20;;;;;;5118047;28;20031;-70
2023/10/17 01:23:02;;;;;;;2.20;0.70;;;9.90;71.50;;;;;;5119709;28;20491;-70
2023/10/17 01:25:35;;;;;;;1.50;0.57;;;9.90;71.50;;;;;;5117832;28;20392;-70
2023/10/17 01:28:00;;;;;;;1.88;0.50;;;9.90;71.90;;;;;;5119305;28;20031;-69
2023/10/17 01:30:30;;;;;;;2.67;0.60;;;9.90;71.50;;;;;;5119305;28;20027;-69
2023/10/17 01:32:56;;;;;;;2.65;0.60;;;9.90;71.60;;;;;;5129930;27;20019;-70
2023/10/17 01:35:23;;;;;;;1.40;0.60;;;9.90;71.70;;;;;;5117903;28;20050;-69
2023/10/17 01:37:49;;;;;;;1.70;0.50;;;9.90;71.90;;;;;;5119349;28;20506;-69
2023/10/17 01:40:33;;;;;;;1.63;0.60;;;9.90;71.50;;;;;;5118961;28;20027;-69
2023/10/17 01:42:59;;;;;;;2.83;0.50;;;9.90;71.70;;;;;;5112591;28;20102;-69
2023/10/17 01:45:27;;;;;;;1.40;0.60;;;9.90;72.00;;;;;;5100761;28;20395;-69
2023/10/17 01:47:53;;;;;;;1.38;0.60;;;9.90;72.40;;;;;;5100615;28;20019;-69
2023/10/17 01:50:26;;;;;;;2.13;0.60;;;9.90;72.10;;;;;;5119267;28;20023;-70
2023/10/17 01:52:58;;;;;;;1.07;0.50;;;9.90;72.00;;;;;;5118933;28;20016;-69
2023/10/17 01:55:29;;;;;;;0.73;0.47;;;9.90;72.10;;;;;;5118720;28;20342;-70
2023/10/17 01:57:57;;;;;;;0.93;0.50;;;10.00;72.60;;;;;;5118581;28;20032;-70
2023/10/17 02:02:58;;;;;;;1.23;0.52;;;10.00;72.50;;;;;;5118641;28;20027;-70
2023/10/17 02:05:24;;;;;;;1.65;0.63;;;10.00;72.80;;;;;;5118611;28;20024;-70
2023/10/17 02:07:50;;;;;;;1.25;0.68;;;10.00;72.70;;;;;;5118520;28;20058;-69
2023/10/17 02:10:21;;;;;;;3.03;0.70;;;9.90;72.60;;;;;;5118681;27;20564;-69
2023/10/17 02:12:48;;;;;;;1.00;0.60;;;9.90;72.60;;;;;;5118456;28;20032;-69
2023/10/17 02:15:19;;;;;;;1.80;0.50;;;10.00;72.70;;;;;;5118552;28;20081;-69
2023/10/17 02:17:48;;;;;;;3.50;0.63;;;10.00;73.40;;;;;;5099431;28;20034;-69
2023/10/17 02:20:34;;;;;;;2.47;0.95;;;10.00;73.00;;;;;;5100067;28;20020;-69
2023/10/17 02:23:08;;;;;;;2.13;0.63;;;10.00;73.10;;;;;;5118264;28;20042;-69
2023/10/17 02:25:35;;;;;;;1.00;0.50;;;10.00;73.00;;;;;;5118111;28;20026;-69
2023/10/17 02:28:02;;;;;;;1.30;0.60;;;10.00;73.00;;;;;;5099749;28;20027;-69
2023/10/17 02:30:27;;;;;;;1.15;0.70;;;10.00;73.00;;;;;;5118315;28;20151;-69
2023/10/17 02:32:53;;;;;;;2.40;0.65;;;10.00;73.10;;;;;;5118314;28;20016;-69
2023/10/17 02:35:35;;;;;;;2.28;0.68;;;10.00;73.30;;;;;;5118102;28;20069;-70
2023/10/17 02:38:03;;;;;;;3.15;0.70;;;10.00;73.40;;;;;;5117987;28;20027;-70
2023/10/17 02:40:34;;;;;;;2.30;0.50;;;10.00;73.80;;;;;;5117995;28;20023;-69
2023/10/17 02:43:00;;;;;;;0.98;0.60;;;10.00;73.90;;;;;;5111843;28;20501;-69
2023/10/17 02:45:26;;;;;;;1.20;0.60;;;10.00;74.00;;;;;;5099573;28;20019;-70
2023/10/17 02:47:56;;;;;;;2.53;0.63;;;10.00;74.40;;;;;;5117781;28;20042;-69
2023/10/17 02:50:41;;;;;;;0.90;0.50;;;10.00;74.40;;;;;;5118093;28;20016;-69
2023/10/17 02:53:12;;;;;;;1.45;0.70;;;10.00;74.10;;;;;;5117823;28;20102;-69
2023/10/17 02:55:38;;;;;;;1.50;0.50;;;10.00;74.50;;;;;;5125148;27;20490;-69
2023/10/17 02:58:04;;;;;;;2.38;0.60;;;10.00;74.30;;;;;;5116293;28;20027;-68
2023/10/17 03:00:35;;;;;;;1.30;0.60;;;10.00;74.40;;;;;;5117815;28;20058;-69
2023/10/17 03:03:11;;;;;;;1.73;0.70;;;10.00;74.50;;;;;;5117900;28;20030;-70
2023/10/17 03:05:40;;;;;;;1.60;0.70;;;10.00;74.60;;;;;;5117791;28;20046;-70
2023/10/17 03:08:10;;;;;;;1.67;0.60;;;10.00;74.60;;;;;;5116558;28;20545;-69
2023/10/17 03:10:39;;;;;;;3.60;0.70;;;10.00;74.80;;;;;;5117493;28;20092;-69
2023/10/17 03:13:39;;;;;;;1.80;0.80;;;10.00;75.00;;;;;;5117813;28;20028;-70
2023/10/17 03:16:17;;;;;;;0.98;0.60;;;10.00;75.00;;;;;;5099301;28;20019;-71
2023/10/17 03:18:45;;;;;;;1.70;0.40;;;10.00;75.00;;;;;;5117698;28;20369;-70
2023/10/17 03:21:12;;;;;;;1.10;0.70;;;10.00;75.00;;;;;;5117638;28;20057;-70
2023/10/17 03:23:37;;;;;;;1.30;0.68;;;10.00;75.30;;;;;;5117600;28;20031;-69
2023/10/17 03:26:03;;;;;;;1.17;0.55;;;10.00;75.20;;;;;;5117538;28;20027;-71
2023/10/17 03:28:33;;;;;;;1.15;0.57;;;10.00;75.60;;;;;;5099463;28;20031;-68
2023/10/17 03:30:58;;;;;;;1.17;0.63;;;10.00;75.40;;;;;;5121783;28;20012;-69
2023/10/17 03:33:27;;;;;;;0.73;0.45;;;10.10;75.60;;;;;;5121799;28;20024;-69
2023/10/17 03:38:30;;;;;;;1.67;0.70;;;10.00;75.40;;;;;;5121556;28;20028;-69
2023/10/17 03:41:06;;;;;;;1.30;0.60;;;10.10;75.60;;;;;;5121346;28;20089;-69
2023/10/17 03:43:38;;;;;;;1.95;0.60;;;10.10;75.80;;;;;;5121142;28;20047;-69
2023/10/17 03:46:07;;;;;;;2.03;0.60;;;10.10;76.10;;;;;;5121575;28;20023;-69
2023/10/17 03:48:36;;;;;;;1.25;0.63;;;10.10;75.70;;;;;;5121267;28;20027;-69
2023/10/17 03:53:32;;;;;;;1.55;0.65;;;10.10;75.70;;;;;;5121660;28;20020;-69
2023/10/17 03:56:02;;;;;;;2.90;0.65;;;10.10;76.00;;;;;;5121198;28;20031;-69
2023/10/17 04:01:00;;;;;;;1.50;0.70;;;10.10;76.00;;;;;;5121036;28;20039;-69
2023/10/17 04:03:30;;;;;;;1.00;0.60;;;10.10;76.10;;;;;;5119856;28;20024;-69
2023/10/17 04:08:48;;;;;;;1.98;0.75;;;10.10;76.30;;;;;;5121379;28;20479;-69
2023/10/17 04:13:51;;;;;;;0.90;0.52;;;10.10;76.50;;;;;;5120529;28;20515;-69
2023/10/17 04:16:22;;;;;;;2.33;0.88;;;10.10;76.30;;;;;;5102555;28;20416;-70
2023/10/17 04:18:55;;;;;;;1.75;0.60;;;10.10;76.70;;;;;;5120679;28;20027;-69
2023/10/17 04:21:29;;;;;;;1.48;0.60;;;10.10;76.90;;;;;;5102544;28;20043;-70
2023/10/17 04:23:55;;;;;;;1.85;0.75;;;10.00;77.00;;;;;;5120831;28;20083;-68
2023/10/17 04:26:28;;;;;;;1.08;0.65;;;10.10;77.20;;;;;;5120589;28;20019;-69
2023/10/17 04:28:55;;;;;;;1.63;0.60;;;10.10;77.10;;;;;;5120374;28;20028;-69
2023/10/17 04:31:28;;;;;;;2.00;0.55;;;10.00;77.20;;;;;;5120548;28;20395;-70
2023/10/17 04:34:08;;;;;;;1.48;0.60;;;10.00;77.40;;;;;;5120325;28;20020;-69
2023/10/17 04:36:38;;;;;;;2.75;0.70;;;10.00;77.60;;;;;;5120595;28;20380;-69
2023/10/17 04:39:18;;;;;;;1.35;0.70;;;10.00;77.80;;;;;;5120590;28;20019;-70
2023/10/17 04:44:17;;;;;;;1.23;0.60;;;10.00;78.20;;;;;;5120368;28;20031;-69
2023/10/17 04:46:50;;;;;;;1.10;0.70;;;10.00;78.20;;;;;;5120156;28;20073;-69
2023/10/17 04:49:20;;;;;;;2.38;0.70;;;10.10;78.60;;;;;;5120314;28;20024;-68
2023/10/17 04:52:06;;;;;;;1.20;0.63;;;10.00;78.00;;;;;;5120303;28;20542;-70
2023/10/17 04:57:18;;;;;;;1.50;0.68;;;10.00;78.30;;;;;;5120035;28;20451;-69
2023/10/17 06:18:57;;;;;;;1.65;0.80;;;10.00;81.80;;;;;;5118512;28;20057;-69
2023/10/17 06:21:36;;;;;;;1.77;0.80;;;10.00;81.80;;;;;;5118491;28;20035;-69
2023/10/17 06:27:11;;;;;;;1.85;0.82;;;10.00;82.30;;;;;;5069772;28;20040;-70
2023/10/17 06:32:15;;;;;;;2.25;0.90;;;10.10;82.30;;;;;;5118312;28;20415;-69
2023/10/17 06:34:42;;;;;;;1.95;0.82;;;10.10;82.20;;;;;;5118193;28;20015;-69
2023/10/17 06:37:09;;;;;;;2.47;0.73;;;10.10;82.40;;;;;;5117736;28;20020;-70
2023/10/17 06:39:47;;;;;;;1.52;0.80;;;10.10;82.20;;;;;;5117895;28;20098;-69
2023/10/17 06:42:27;;;;;;;1.20;0.90;;;10.20;82.40;;;;;;5111398;28;20019;-69
2023/10/17 06:45:09;;;;;;;1.70;0.63;;;10.20;82.50;;;;;;5117809;28;20027;-69
2023/10/17 06:47:49;;;;;;;1.15;0.63;;;10.20;82.20;;;;;;5117634;28;20024;-70
2023/10/17 06:56:04;;;;;;;1.77;0.88;;;10.40;82.40;;;;;;5117573;28;20072;-69
2023/10/17 06:58:09;;;;;;;1.58;0.70;;;10.40;82.20;;;;;;5094142;28;20027;-69
2023/10/17 07:00:43;;;;;;;1.98;0.80;;;10.40;83.70;;;;;;5117647;28;20048;-70
2023/10/17 07:03:09;;;;;;;2.60;1.25;;;10.50;82.60;;;;;;5098884;28;20028;-70
2023/10/17 07:05:36;;;;;;;3.30;1.33;;;10.60;82.60;;;;;;5117725;28;20032;-69
2023/10/17 07:08:02;;;;;;;2.53;0.93;;;10.60;82.60;;;;;;5117488;28;20017;-70
2023/10/17 07:13:39;;;;;;;2.53;0.95;;;10.70;82.40;;;;;;5117549;28;20016;-70
2023/10/17 07:16:11;;;;;;;4.53;1.02;;;10.70;81.80;;;;;;5116426;28;20028;-70
2023/10/17 07:18:47;;;;;;;1.42;0.70;;;10.80;82.40;;;;;;5117649;28;20031;-70
2023/10/17 07:23:43;;;;;;;1.50;0.80;;;10.90;82.20;;;;;;5117622;28;20027;-70
2023/10/17 07:26:15;;;;;;;1.63;0.90;;;10.90;82.30;;;;;;5117471;28;20030;-70
2023/10/17 07:28:43;;;;;;;2.25;0.90;;;11.00;82.10;;;;;;5113247;28;20020;-70
2023/10/17 07:31:13;;;;;;;3.78;0.95;;;11.00;82.10;;;;;;5089696;28;20035;-70
2023/10/17 07:33:43;;;;;;;3.22;0.93;;;11.00;81.90;;;;;;5115426;28;20026;-69
2023/10/17 07:36:15;;;;;;;2.25;0.90;;;11.00;82.00;;;;;;5111730;28;20027;-69
2023/10/17 07:38:43;;;;;;;1.40;0.73;;;11.00;82.30;;;;;;5114858;28;20011;-69
2023/10/17 07:41:33;;;;;;;3.05;1.00;;;11.10;82.30;;;;;;5097718;28;20101;-68
2023/10/17 07:44:06;;;;;;;2.72;0.90;;;11.10;81.90;;;;;;5123014;28;20024;-69
2023/10/17 07:46:34;;;;;;;1.70;0.80;;;11.10;82.10;;;;;;5117095;28;20023;-69
2023/10/17 07:49:04;;;;;;;1.27;0.80;;;11.20;82.30;;;;;;5103174;28;20077;-69
2023/10/17 07:51:30;;;;;;;2.00;0.80;;;11.20;82.10;;;;;;5098538;28;20028;-70
2023/10/17 07:53:57;;;;;;;1.75;0.73;;;11.20;82.10;;;;;;5117245;28;20016;-70
2023/10/17 07:56:26;;;;;;;1.85;0.80;;;11.30;82.00;;;;;;5116533;28;20081;-70
2023/10/17 07:59:04;;;;;;;3.83;0.95;;;11.40;82.20;;;;;;5116450;28;20024;-69
2023/10/17 08:01:41;;;;;;;3.45;0.90;;;11.40;82.20;;;;;;5116888;28;20055;-69
2023/10/17 08:04:17;;;;;;;1.60;0.70;;;11.40;81.90;;;;;;5117054;28;20067;-69
2023/10/17 08:06:43;;;;;;;4.03;1.00;;;11.50;82.20;;;;;;5117068;28;20024;-71
2023/10/17 08:11:52;;;;;;;1.67;0.80;;;11.70;82.50;;;;;;5125768;28;20028;-69
2023/10/17 08:14:19;;;;;;;1.35;0.80;;;11.80;81.90;;;;;;5116938;28;20024;-69
2023/10/17 08:16:49;;;;;;;1.35;0.90;;;11.90;81.40;;;;;;5119801;28;20020;-69
2023/10/17 08:19:15;;;;;;;2.05;0.90;;;12.00;81.80;;;;;;5102436;28;20399;-69
2023/10/17 08:24:14;;;;;;;1.92;0.90;;;12.20;81.30;;;;;;5120504;28;20031;-72
2023/10/17 08:26:40;;;;;;;1.67;1.02;;;12.20;80.40;;;;;;5120356;28;20042;-71
2023/10/17 08:29:08;;;;;;;2.60;1.10;;;12.30;80.60;;;;;;5120815;28;20022;-71
2023/10/17 08:31:44;;;;;;;2.13;0.80;;;12.40;80.40;;;;;;5120778;28;20429;-72
2023/10/17 08:34:12;;;;;;;1.35;0.90;;;12.50;79.50;;;;;;5120515;28;20053;-72
2023/10/17 08:39:59;;;;;;;1.60;0.80;;;12.60;79.20;;;;;;5120747;28;20055;-73
2023/10/17 08:42:11;;;;;;;1.73;0.75;;;12.60;79.50;;;;;;5104247;28;20024;-72
2023/10/17 08:44:39;;;;;;;2.35;0.95;;;12.70;78.90;;;;;;5120217;28;20028;-72
2023/10/17 08:47:07;;;;;;;2.13;0.95;;;12.70;78.50;;;;;;5101926;28;20556;-73
2023/10/17 08:49:33;;;;;;;2.35;1.00;;;12.70;78.60;;;;;;5119811;28;20383;-73
2023/10/17 08:51:59;;;;;;;2.08;0.80;;;12.80;78.60;;;;;;5120031;28;20023;-72
2023/10/17 08:54:28;;;;;;;1.88;0.80;;;12.80;78.50;;;;;;5119668;28;20024;-73
2023/10/17 08:56:54;;;;;;;2.58;0.70;;;12.90;78.10;;;;;;5101336;28;20030;-73
2023/10/17 09:05:17;;;;;;;2.78;0.90;;;13.10;77.80;;;;;;5085492;28;20337;-76
2023/10/17 09:07:45;;;;;;;2.70;0.90;;;13.20;78.40;;;;;;5101359;28;20027;-71
2023/10/17 09:10:20;;;;;;;2.05;0.77;;;13.30;78.80;;;;;;5119308;27;20065;-72
2023/10/17 09:15:48;;;;;;;1.15;0.80;;;13.40;77.50;;;;;;5121728;27;20130;-73
2023/10/17 09:18:14;;;;;;;2.60;0.88;;;13.50;77.20;;;;;;5116946;27;20045;-74
2023/10/17 09:20:40;;;;;;;1.80;1.02;;;13.60;76.90;;;;;;5099616;28;20483;-73
2023/10/17 09:23:30;;;;;;;1.08;0.70;;;13.60;76.20;;;;;;5119743;28;20054;-75
2023/10/17 09:25:58;;;;;;;2.20;0.95;;;13.60;76.50;;;;;;5111444;28;20515;-73
2023/10/17 09:28:25;;;;;;;1.63;0.98;;;13.60;75.50;;;;;;5123619;27;20547;-75
2023/10/17 09:31:12;;;;;;;1.75;0.90;;;13.60;75.60;;;;;;5100857;28;20110;-74
2023/10/17 09:33:48;;;;;;;2.53;1.20;;;13.70;76.30;;;;;;5116519;28;20020;-74
2023/10/17 09:36:17;;;;;;;2.00;1.00;;;13.80;76.50;;;;;;5117911;28;20118;-74
2023/10/17 09:38:44;;;;;;;2.58;1.15;;;13.80;76.40;;;;;;5117724;28;20114;-74
2023/10/17 09:41:11;;;;;;;2.35;1.23;;;13.90;75.70;;;;;;5118935;28;20529;-74
2023/10/17 09:43:38;;;;;;;2.72;1.00;;;14.00;75.90;;;;;;5122363;27;20026;-73
2023/10/17 09:46:09;;;;;;;2.35;1.10;;;14.00;76.00;;;;;;5126397;27;20038;-73
2023/10/17 09:48:36;;;;;;;2.72;1.20;;;14.10;76.20;;;;;;5118806;28;20016;-72
2023/10/17 09:51:03;;;;;;;2.75;1.10;;;14.20;76.00;;;;;;5108656;28;20030;-72
2023/10/17 09:53:34;;;;;;;3.08;1.25;;;14.30;75.80;;;;;;5090778;28;20027;-73
2023/10/17 09:56:07;;;;;;;3.97;1.27;;;14.30;75.30;;;;;;5118627;28;20494;-76
2023/10/17 09:58:38;;;;;;;2.47;1.10;;;14.30;75.30;;;;;;5118507;28;20484;-76
2023/10/17 10:01:14;;;;;;;2.33;1.33;;;14.30;75.50;;;;;;5117104;28;20131;-76
2023/10/17 10:03:41;;;;;;;2.60;1.20;;;14.40;75.20;;;;;;5118814;28;20054;-77
2023/10/17 10:06:33;;;;;;;2.80;1.23;;;14.50;75.20;;;;;;5118398;28;20094;-76
2023/10/17 10:09:06;;;;;;;1.90;1.20;;;14.40;74.90;;;;;;5117262;28;20024;-73
2023/10/17 10:11:50;;;;;;;2.47;1.20;;;14.50;74.80;;;;;;5099820;28;20392;-73
2023/10/17 10:14:39;;;;;;;3.45;0.98;;;14.60;75.40;;;;;;5099974;28;20027;-78
2023/10/17 10:17:05;;;;;;;1.85;1.13;;;14.60;75.30;;;;;;5118378;28;20068;-73
2023/10/17 10:19:47;;;;;;;3.03;1.10;;;14.70;75.20;;;;;;5129759;27;20019;-73
2023/10/17 10:22:17;;;;;;;2.80;1.10;;;14.70;75.20;;;;;;5118165;28;20420;-75
2023/10/17 10:24:45;;;;;;;2.15;1.00;;;14.80;75.20;;;;;;5118159;28;20089;-77
2023/10/17 10:27:19;;;;;;;4.00;1.08;;;15.00;75.50;;;;;;5117820;28;20108;-74
2023/10/17 10:29:51;;;;;;;2.25;1.17;;;15.00;75.20;;;;;;5118279;28;20050;-75
2023/10/17 10:32:33;;;;;;;3.33;1.00;;;15.10;75.20;;;;;;5118168;28;20015;-73
2023/10/17 10:35:00;;;;;;;1.65;1.00;;;15.20;75.00;;;;;;5118078;28;20024;-76
2023/10/17 10:37:26;;;;;;;2.67;0.98;;;15.30;74.50;;;;;;5117892;28;20027;-76
2023/10/17 10:40:52;;;;;;;2.20;1.10;;;15.30;75.10;;;;;;5101219;28;20031;-74
2023/10/17 10:43:01;;;;;;;2.45;1.10;;;15.40;75.00;;;;;;5103421;28;20503;-75
2023/10/17 10:45:31;;;;;;;;;;;15.50;74.70;;;;;;5086909;28;20028;-75
2023/10/17 10:48:00;;;;;;;1.63;1.00;;;15.50;75.10;;;;;;5099287;28;20303;-72
2023/10/17 10:50:33;;;;;;;6.85;1.55;;;15.70;75.10;;;;;;5099639;28;20019;-71
2023/10/17 10:53:00;;;;;;;;;;;15.70;75.00;;;;;;5113657;28;20019;-71
2023/10/17 10:55:26;;;;;;;4.07;1.77;;;15.70;75.30;;;;;;5117748;28;19958;-76
2023/10/17 10:57:53;;;;;;;2.95;1.88;;;15.80;75.00;;;;;;5099091;28;20365;-73
2023/10/17 11:00:19;;;;;;;3.95;2.20;;;15.80;75.00;;;;;;5117602;28;20054;-73
2023/10/17 11:02:44;;;;;;;3.78;1.88;;;15.90;74.80;;;;;;5117481;28;20028;-73
2023/10/17 11:05:13;;;;;;;3.38;1.90;;;16.00;74.80;;;;;;5099362;28;20118;-77
2023/10/17 11:07:39;;;;;;;4.60;2.08;;;16.00;75.30;;;;;;5117130;28;20023;-70
2023/10/17 11:10:06;;;;;;;3.75;1.90;;;16.10;75.50;;;;;;5117659;28;20027;-71
2023/10/17 11:12:35;;;;;;;2.53;1.50;;;16.20;75.70;;;;;;5117109;28;20016;-71
2023/10/17 11:15:14;;;;;;;3.17;1.45;;;16.40;76.20;;;;;;5099218;28;20028;-71
2023/10/17 11:17:42;;;;;;;3.05;1.50;;;16.50;75.50;;;;;;5100882;28;20031;-71
2023/10/17 11:20:18;;;;;;;2.42;1.20;;;16.60;75.10;;;;;;5117625;28;20102;-69
2023/10/17 11:22:46;;;;;;;3.35;1.40;;;16.70;75.30;;;;;;5099160;28;20023;-70
2023/10/17 11:25:47;;;;;;;2.10;1.10;;;16.80;75.10;;;;;;5105303;28;20145;-68
2023/10/17 11:28:09;;;;;;;;;;;16.80;75.30;;;;;;5114116;28;20067;-69
2023/10/17 11:30:42;;;;;;;2.92;1.35;;;16.90;75.10;;;;;;5117359;28;20022;-69
2023/10/17 11:33:17;;;;;;;2.65;0.98;;;16.90;75.20;;;;;;5117385;28;20026;-77
2023/10/17 11:35:51;;;;;;;2.15;1.05;;;17.00;75.40;;;;;;5117359;28;20060;-76
2023/10/17 11:38:37;;;;;;;2.38;1.30;;;17.10;75.70;;;;;;5115932;28;20481;-77
2023/10/17 11:41:07;;;;;;;2.17;1.25;;;17.10;75.70;;;;;;5104819;28;20364;-77
2023/10/17 11:43:51;;;;;;;7.50;1.85;;;17.30;75.60;;;;;;5098593;28;20523;-77
2023/10/17 11:46:33;;;;;;;2.50;1.00;;;17.30;75.50;;;;;;5098830;28;20035;-77
2023/10/17 11:49:26;;;;;;;2.13;1.23;;;17.40;75.80;;;;;;5098840;28;20157;-77
2023/10/17 11:52:09;;;;;;;2.10;1.10;;;17.40;75.60;;;;;;5102171;28;20164;-78
2023/10/17 11:55:00;;;;;;;5.68;3.40;;;17.40;75.50;;;;;;5102503;27;20095;-78
2023/10/17 11:57:27;;;;;;;3.60;1.48;;;17.40;76.10;;;;;;5095514;27;20023;-78
2023/10/17 12:00:07;;;;;;;4.80;2.15;;;17.50;76.40;;;;;;5118789;27;20082;-79
2023/10/17 12:02:33;;;;;;;2.70;1.30;;;17.60;76.70;;;;;;5120913;27;20479;-78
2023/10/17 12:05:03;;;;;;;2.70;1.40;;;17.70;76.90;;;;;;5114431;27;20313;-77
2023/10/17 12:07:29;;;;;;;2.70;1.15;;;17.80;76.90;;;;;;5120509;27;20024;-78
2023/10/17 12:10:02;;;;;;;2.85;1.33;;;17.90;76.00;;;;;;5102348;28;20026;-77
2023/10/17 12:12:28;;;;;;;;;;;17.90;76.30;;;;;;5122677;27;20030;-77
2023/10/17 12:14:54;;;;;;;3.83;1.45;;;18.00;76.30;;;;;;5126384;27;19914;-78
2023/10/17 12:17:21;;;;;;;2.42;1.33;;;18.00;75.50;;;;;;5110830;28;20103;-77
2023/10/17 12:19:47;;;;;;;2.70;1.23;;;18.00;75.70;;;;;;5121554;27;20392;-77
2023/10/17 12:22:12;;;;;;;5.95;2.10;;;18.00;75.30;;;;;;5120860;27;20034;-77
2023/10/17 12:24:38;;;;;;;5.72;2.88;;;17.90;75.70;;;;;;5129244;27;20076;-77
2023/10/17 12:27:06;;;;;;;4.45;1.90;;;17.90;75.60;;;;;;5122641;27;20072;-78
2023/10/17 12:29:34;;;;;;;3.13;1.25;;;17.90;76.30;;;;;;5130213;27;20015;-77
2023/10/17 12:32:01;;;;;;;3.25;1.80;;;17.90;76.60;;;;;;5133184;27;20389;-77
2023/10/17 12:34:28;;;;;;;2.50;1.30;;;17.90;76.50;;;;;;5109262;27;20028;-77
2023/10/17 12:36:54;;;;;;;5.47;1.70;;;17.80;76.70;;;;;;5104257;28;20038;-78
2023/10/17 12:39:20;;;;;;;3.25;1.45;;;17.80;77.00;;;;;;5099278;28;20043;-77
2023/10/17 12:41:46;;;;;;;3.22;1.42;;;17.80;77.20;;;;;;5118561;27;20028;-77
2023/10/17 12:44:12;;;;;;;3.90;1.75;;;17.80;77.20;;;;;;5116787;27;20023;-76
2023/10/17 12:46:38;;;;;;;3.35;1.52;;;17.80;77.30;;;;;;5126342;27;20023;-77
2023/10/17 12:49:06;;;;;;;2.92;1.48;;;17.70;77.40;;;;;;5118452;27;20023;-77
2023/10/17 12:51:32;;;;;;;2.80;1.30;;;17.70;78.30;;;;;;5095859;28;20034;-78
2023/10/17 12:53:58;;;;;;;3.45;1.42;;;17.80;78.70;;;;;;5120529;27;20015;-76
2023/10/17 12:56:24;;;;;;;2.55;1.58;;;17.80;78.70;;;;;;5102940;27;20070;-76
2023/10/17 12:58:51;;;;;;;3.10;1.63;;;17.80;78.50;;;;;;5104109;27;20052;-76
2023/10/17 13:01:17;;;;;;;3.70;1.45;;;17.90;79.00;;;;;;5100485;28;20052;-76
2023/10/17 13:03:43;;;;;;;2.65;1.70;;;17.90;79.00;;;;;;5103073;28;20028;-76
2023/10/17 13:06:09;;;;;;;4.13;1.63;;;18.00;78.90;;;;;;5097981;28;20034;-75
2023/10/17 13:08:35;;;;;;;3.25;1.40;;;18.10;79.30;;;;;;5125273;27;20094;-77
2023/10/17 13:11:04;;;;;;;3.80;1.40;;;18.20;79.30;;;;;;5120009;27;20012;-77
2023/10/17 13:13:30;;;;;;;3.50;1.38;;;18.30;79.00;;;;;;5113956;27;20365;-78
2023/10/17 13:15:57;;;;;;;2.72;1.40;;;18.40;78.90;;;;;;5110823;28;20032;-77
2023/10/17 13:18:29;;;;;;;3.13;1.60;;;18.50;78.60;;;;;;5114802;27;20554;-76
2023/10/17 13:20:58;;;;;;;2.80;1.42;;;18.60;78.20;;;;;;5118869;28;20019;-77
2023/10/17 13:23:24;;;;;;;3.03;1.33;;;18.70;78.50;;;;;;5101552;28;20038;-77
2023/10/17 13:25:50;;;;;;;3.17;1.30;;;18.70;78.10;;;;;;5113312;28;20028;-77
2023/10/17 13:28:19;;;;;;;3.20;1.60;;;18.80;77.80;;;;;;5117990;28;20112;-74
2023/10/17 13:30:45;;;;;;;3.10;1.50;;;18.90;77.50;;;;;;5119614;28;20012;-76
2023/10/17 13:33:11;;;;;;;2.45;1.23;;;18.90;77.40;;;;;;5118089;28;20035;-75
2023/10/17 13:35:40;;;;;;;2.83;1.58;;;19.00;78.00;;;;;;5119543;28;20008;-74
2023/10/17 13:38:06;;;;;;;3.28;1.50;;;19.00;77.50;;;;;;5119209;28;20020;-76
2023/10/17 13:40:32;;;;;;;2.78;1.50;;;19.00;76.80;;;;;;5107416;28;20365;-76
2023/10/17 13:42:58;;;;;;;3.50;1.65;;;19.00;76.90;;;;;;5118833;28;20107;-75
2023/10/17 13:45:25;;;;;;;4.45;1.67;;;19.00;78.30;;;;;;5119380;28;20061;-75
2023/10/17 13:47:53;;;;;;;5.13;1.60;;;19.00;77.10;;;;;;5119037;28;20015;-75
2023/10/17 13:50:19;;;;;;;2.65;1.50;;;19.00;77.20;;;;;;5100716;28;20030;-75
2023/10/17 13:52:49;;;;;;;3.30;1.60;;;19.00;77.40;;;;;;5100611;28;20023;-75
2023/10/17 13:55:28;;;;;;;2.72;1.33;;;19.10;77.70;;;;;;5119004;28;20356;-76
2023/10/17 13:58:01;;;;;;;4.10;1.50;;;19.20;77.50;;;;;;5118694;28;20547;-76
2023/10/17 14:00:36;;;;;;;2.20;1.30;;;19.20;77.60;;;;;;5118979;28;20035;-74
2023/10/17 14:03:06;;;;;;;2.50;1.35;;;19.30;77.20;;;;;;5118404;28;20028;-75
2023/10/17 14:05:31;;;;;;;3.00;1.60;;;19.30;77.10;;;;;;5118575;28;20016;-75
2023/10/17 14:07:57;;;;;;;3.35;1.55;;;19.40;77.00;;;;;;5100095;28;20031;-74
2023/10/17 14:10:24;;;;;;;4.50;1.35;;;19.40;76.70;;;;;;5131271;27;20051;-75
2023/10/17 14:12:51;;;;;;;3.40;1.63;;;19.40;77.30;;;;;;5099988;28;20487;-75
2023/10/17 14:15:17;;;;;;;4.53;1.35;;;19.30;77.00;;;;;;5118231;28;20019;-75
2023/10/17 14:17:45;;;;;;;3.65;1.60;;;19.40;77.60;;;;;;5120312;27;20023;-75
2023/10/17 14:20:17;;;;;;;2.05;1.30;;;19.40;77.40;;;;;;5118207;28;20077;-75
2023/10/17 14:23:08;;;;;;;2.90;1.30;;;19.40;77.30;;;;;;5118472;28;20037;-74
2023/10/17 14:28:16;;;;;;;2.13;1.20;;;19.50;77.70;;;;;;5118124;28;20035;-72
2023/10/17 14:30:42;;;;;;;3.70;1.20;;;19.50;77.70;;;;;;5116747;28;20039;-75
2023/10/17 14:33:09;;;;;;;4.88;1.60;;;19.60;78.00;;;;;;5116836;28;20015;-76
2023/10/17 14:35:37;;;;;;;4.13;1.27;;;19.70;77.60;;;;;;5116670;28;20073;-76
2023/10/17 14:38:03;;;;;;;3.03;1.23;;;19.80;77.50;;;;;;5118088;28;20450;-75
2023/10/17 14:40:30;;;;;;;3.60;1.30;;;19.70;76.80;;;;;;5117697;28;20028;-76
2023/10/17 14:42:56;;;;;;;3.55;1.27;;;19.70;76.30;;;;;;5117420;28;20104;-75
2023/10/17 14:45:25;;;;;;;3.42;1.52;;;19.60;76.70;;;;;;5099895;28;20055;-74
2023/10/17 14:47:56;;;;;;;5.72;1.55;;;19.60;76.50;;;;;;5099183;28;20047;-75
2023/10/17 14:50:22;;;;;;;2.00;1.30;;;19.50;76.60;;;;;;5117740;28;20031;-74
2023/10/17 14:52:47;;;;;;;3.20;1.50;;;19.40;77.10;;;;;;5099174;28;20019;-75
2023/10/17 14:55:23;;;;;;;4.78;1.30;;;19.30;77.40;;;;;;5117670;28;20154;-72
2023/10/17 14:57:49;;;;;;;2.03;1.20;;;19.20;77.80;;;;;;5117533;28;20015;-72
2023/10/17 15:00:15;;;;;;;2.50;1.20;;;19.10;78.50;;;;;;5099564;28;20409;-73
2023/10/17 15:02:44;;;;;;;3.92;1.30;;;19.10;79.20;;;;;;5117755;28;20031;-73
2023/10/17 15:05:13;;;;;;;3.90;1.40;;;19.10;79.30;;;;;;5099469;28;20039;-74
2023/10/17 15:07:40;;;;;;;3.72;1.40;;;19.10;79.80;;;;;;5099331;28;20024;-73
2023/10/17 15:10:13;;;;;;;3.25;1.08;;;19.10;79.70;;;;;;5127836;27;20098;-74
2023/10/17 15:12:43;;;;;;;2.85;1.10;;;19.10;80.40;;;;;;5119857;27;20384;-74
2023/10/17 15:15:10;;;;;;;2.55;1.40;;;19.20;80.40;;;;;;5099344;28;20039;-74
2023/10/17 15:17:44;;;;;;;4.28;1.30;;;19.20;80.10;;;;;;5101058;28;20444;-74
2023/10/17 15:20:11;;;;;;;3.00;1.23;;;19.10;79.90;;;;;;5117518;28;20024;-75
2023/10/17 15:22:41;;;;;;;3.58;1.58;;;19.00;80.40;;;;;;5117480;28;20051;-74
2023/10/17 15:25:12;;;;;;;2.75;1.33;;;18.90;80.30;;;;;;5119470;28;20415;-74
2023/10/17 15:27:39;;;;;;;5.50;1.20;;;18.90;81.40;;;;;;5120220;28;20031;-76
2023/10/17 15:30:08;;;;;;;3.05;1.20;;;18.80;82.10;;;;;;5121494;28;20019;-72
2023/10/17 15:32:34;;;;;;;3.60;1.20;;;18.80;82.70;;;;;;5087204;28;20032;-72